createdAt,value
2023-04-12T00:01:28.925Z,82.67
2023-04-12T00:03:34.133Z,82.73
2023-04-12T00:05:37.543Z,82.67
2023-04-12T00:07:39.255Z,82.51
2023-04-12T00:09:40.781Z,82.56
2023-04-12T00:11:42.313Z,82.95
2023-04-12T00:13:43.861Z,82.60
2023-04-12T00:15:45.973Z,82.81
2023-04-12T00:17:47.663Z,82.33
2023-04-12T00:19:50.090Z,82.25
2023-04-12T00:21:51.562Z,82.63
2023-04-12T00:23:53.128Z,82.24
2023-04-12T00:25:54.637Z,82.72
2023-04-12T00:27:56.379Z,82.16
2023-04-12T00:29:58.072Z,82.19
2023-04-12T00:32:01.608Z,81.83
2023-04-12T00:34:03.081Z,81.64
2023-04-12T00:36:05.068Z,81.86
2023-04-12T00:38:10.576Z,81.74
2023-04-12T00:40:12.943Z,81.51
2023-04-12T00:42:14.799Z,81.29
2023-04-12T00:44:18.015Z,81.71
2023-04-12T00:46:19.928Z,81.69
2023-04-12T00:48:21.545Z,82.04
2023-04-12T00:50:23.269Z,81.79
2023-04-12T00:52:24.765Z,81.83
2023-04-12T00:54:26.250Z,81.23
2023-04-12T00:56:28.862Z,81.70
2023-04-12T00:58:31.797Z,81.39
2023-04-12T01:00:34.431Z,81.88
2023-04-12T01:02:39.371Z,81.63
2023-04-12T01:04:43.597Z,81.40
2023-04-12T01:07:01.593Z,81.50
2023-04-12T01:09:30.303Z,81.77
2023-04-12T01:12:16.158Z,81.51
2023-04-12T01:14:26.096Z,81.25
2023-04-12T01:16:42.075Z,81.11
2023-04-12T01:18:50.469Z,81.19
2023-04-12T01:20:57.788Z,81.19
2023-04-12T01:23:29.415Z,81.28
2023-04-12T01:25:52.622Z,81.78
2023-04-12T01:27:59.695Z,81.81
2023-04-12T01:30:03.102Z,81.91
2023-04-12T01:32:05.674Z,82.10
2023-04-12T01:34:11.376Z,81.94
2023-04-12T01:36:20.329Z,81.21
2023-04-12T01:38:21.851Z,81.62
2023-04-12T01:40:25.157Z,81.53
2023-04-12T01:42:26.625Z,81.31
2023-04-12T01:44:28.085Z,81.41
2023-04-12T01:46:29.764Z,81.87
2023-04-12T01:48:31.278Z,81.29
2023-04-12T01:50:49.795Z,81.48
2023-04-12T01:53:03.593Z,81.07
2023-04-12T01:55:06.594Z,81.02
2023-04-12T01:57:09.877Z,81.17
2023-04-12T01:59:15.954Z,81.25
2023-04-12T02:01:19.168Z,81.43
2023-04-12T02:03:22.014Z,81.69
2023-04-12T02:05:24.306Z,81.89
2023-04-12T02:07:26.121Z,81.53
2023-04-12T02:09:27.565Z,81.87
2023-04-12T02:11:29.580Z,81.43
2023-04-12T02:13:31.429Z,80.89
2023-04-12T02:15:33.432Z,81.50
2023-04-12T02:17:37.801Z,81.16
2023-04-12T02:19:39.366Z,80.61
2023-04-12T02:21:42.305Z,80.96
2023-04-12T02:23:46.853Z,80.83
2023-04-12T02:25:48.340Z,80.46
2023-04-12T02:27:49.844Z,79.66
2023-04-12T02:29:51.293Z,79.56
2023-04-12T02:31:53.190Z,80.02
2023-04-12T02:33:54.801Z,79.58
2023-04-12T02:35:57.386Z,80.26
2023-04-12T02:37:58.941Z,79.87
2023-04-12T02:40:02.654Z,79.77
2023-04-12T02:42:04.325Z,79.65
2023-04-12T02:44:05.768Z,79.59
2023-04-12T02:46:07.319Z,79.87
2023-04-12T02:48:10.031Z,79.20
2023-04-12T02:50:11.713Z,79.54
2023-04-12T02:52:13.188Z,79.77
2023-04-12T02:54:14.673Z,80.01
2023-04-12T02:56:19.264Z,79.80
2023-04-12T02:58:20.837Z,80.01
2023-04-12T03:00:22.633Z,80.08
2023-04-12T03:02:24.453Z,80.65
2023-04-12T03:04:30.216Z,79.74
2023-04-12T03:06:32.115Z,79.68
2023-04-12T03:08:33.591Z,79.92
2023-04-12T03:10:35.275Z,79.45
2023-04-12T03:12:36.760Z,80.14
2023-04-12T03:14:38.226Z,80.03
2023-04-12T03:16:40.004Z,80.58
2023-04-12T03:18:41.484Z,80.14
2023-04-12T03:20:46.036Z,81.00
2023-04-12T03:22:48.927Z,81.10
2023-04-12T03:24:51.670Z,80.91
2023-04-12T03:26:53.259Z,81.10
2023-04-12T03:28:58.708Z,80.84
2023-04-12T03:31:00.649Z,80.94
2023-04-12T03:33:02.433Z,81.40
2023-04-12T03:35:04.758Z,81.58
2023-04-12T03:37:06.233Z,81.18
2023-04-12T03:39:07.706Z,81.15
2023-04-12T03:41:09.161Z,80.92
2023-04-12T03:43:10.658Z,81.56
2023-04-12T03:45:12.236Z,80.94
2023-04-12T03:47:13.915Z,81.14
2023-04-12T03:49:16.727Z,80.85
2023-04-12T03:51:18.445Z,80.52
2023-04-12T03:53:20.817Z,81.31
2023-04-12T03:55:22.448Z,81.47
2023-04-12T03:57:23.919Z,81.24
2023-04-12T03:59:25.539Z,81.38
2023-04-12T04:01:27.516Z,81.57
2023-04-12T04:03:29.858Z,80.75
2023-04-12T04:05:32.296Z,80.90
2023-04-12T04:07:33.796Z,80.67
2023-04-12T04:09:35.311Z,81.30
2023-04-12T04:11:37.773Z,80.75
2023-04-12T04:13:39.361Z,81.18
2023-04-12T04:15:40.832Z,80.53
2023-04-12T04:17:43.033Z,81.08
2023-04-12T04:19:44.614Z,80.74
2023-04-12T04:21:46.097Z,80.02
2023-04-12T04:23:48.006Z,81.07
2023-04-12T04:25:50.017Z,81.00
2023-04-12T04:27:52.025Z,80.72
2023-04-12T04:29:53.514Z,80.97
2023-04-12T04:31:55.075Z,80.04
2023-04-12T04:33:56.834Z,80.45
2023-04-12T04:35:58.560Z,80.91
2023-04-12T04:38:01.515Z,80.95
2023-04-12T04:40:08.557Z,81.43
2023-04-12T04:42:11.060Z,80.95
2023-04-12T04:44:13.317Z,80.88
2023-04-12T04:46:14.987Z,80.70
2023-04-12T04:48:16.601Z,80.35
2023-04-12T04:50:18.177Z,80.30
2023-04-12T04:52:19.633Z,80.99
2023-04-12T04:54:21.252Z,80.20
2023-04-12T04:56:23.331Z,80.13
2023-04-12T04:58:25.630Z,80.41
2023-04-12T05:00:27.091Z,80.93
2023-04-12T05:02:28.735Z,80.70
2023-04-12T05:04:30.335Z,80.63
2023-04-12T05:06:31.985Z,81.05
2023-04-12T05:08:33.494Z,81.19
2023-04-12T05:10:35.043Z,80.38
2023-04-12T05:12:37.513Z,80.19
2023-04-12T05:14:47.285Z,80.17
2023-04-12T05:16:52.851Z,79.83
2023-04-12T05:18:54.438Z,80.99
2023-04-12T05:20:55.929Z,80.21
2023-04-12T05:22:57.591Z,81.50
2023-04-12T05:24:59.123Z,80.78
2023-04-12T05:27:00.609Z,79.93
2023-04-12T05:29:02.308Z,80.09
2023-04-12T05:31:04.633Z,79.84
2023-04-12T05:33:06.507Z,80.60
2023-04-12T05:35:08.468Z,79.98
2023-04-12T05:37:10.000Z,79.88
2023-04-12T05:39:11.527Z,79.72
2023-04-12T05:41:13.231Z,80.21
2023-04-12T05:43:14.813Z,80.18
2023-04-12T05:45:16.271Z,81.59
2023-04-12T05:47:17.824Z,81.58
2023-04-12T05:49:19.309Z,81.71
2023-04-12T05:51:30.623Z,80.40
2023-04-12T05:53:39.464Z,80.15
2023-04-12T05:55:40.933Z,80.03
2023-04-12T05:57:45.012Z,80.09
2023-04-12T05:59:46.522Z,80.65
2023-04-12T06:01:48.207Z,80.55
2023-04-12T06:03:49.904Z,80.82
2023-04-12T06:05:52.587Z,80.36
2023-04-12T06:07:54.118Z,79.35
2023-04-12T06:09:55.802Z,79.87
2023-04-12T06:11:57.304Z,80.19
2023-04-12T06:13:58.879Z,80.13
2023-04-12T06:16:00.414Z,80.38
2023-04-12T06:18:02.096Z,80.00
2023-04-12T06:20:10.706Z,79.74
2023-04-12T06:22:12.235Z,80.17
2023-04-12T06:24:13.768Z,79.71
2023-04-12T06:26:17.214Z,77.91
2023-04-12T06:28:20.085Z,77.50
2023-04-12T06:30:21.630Z,77.82
2023-04-12T06:32:23.242Z,77.12
2023-04-12T06:34:24.743Z,77.58
2023-04-12T06:36:26.339Z,76.58
2023-04-12T06:38:27.813Z,77.24
2023-04-12T06:40:29.501Z,76.35
2023-04-12T06:42:30.997Z,76.35
2023-04-12T06:44:33.543Z,75.67
2023-04-12T06:46:35.272Z,75.16
2023-04-12T06:48:36.740Z,75.41
2023-04-12T06:50:39.359Z,75.34
2023-04-12T06:52:40.868Z,75.97
2023-04-12T06:54:42.616Z,75.54
2023-04-12T06:56:44.101Z,75.34
2023-04-12T06:58:45.939Z,75.02
2023-04-12T07:00:47.456Z,75.81
2023-04-12T07:02:49.139Z,76.20
2023-04-12T07:04:54.531Z,74.96
2023-04-12T07:06:56.132Z,75.64
2023-04-12T07:08:57.818Z,74.99
2023-04-12T07:11:03.643Z,75.24
2023-04-12T07:13:10.257Z,74.72
2023-04-12T07:15:11.780Z,74.73
2023-04-12T07:17:13.281Z,74.79
2023-04-12T07:19:14.776Z,74.45
2023-04-12T07:21:17.714Z,74.09
2023-04-12T07:23:19.323Z,73.92
2023-04-12T07:25:20.812Z,74.47
2023-04-12T07:27:22.446Z,73.61
2023-04-12T07:29:23.900Z,73.62
2023-04-12T07:31:25.404Z,73.31
2023-04-12T07:33:27.030Z,74.14
2023-04-12T07:35:28.558Z,74.19
2023-04-12T07:37:30.036Z,74.33
2023-04-12T07:39:31.938Z,73.07
2023-04-12T07:41:33.441Z,73.51
2023-04-12T07:43:34.901Z,74.32
2023-04-12T07:45:37.496Z,74.99
2023-04-12T07:47:39.171Z,73.13
2023-04-12T07:49:40.681Z,73.42
2023-04-12T07:51:42.576Z,73.54
2023-04-12T07:53:48.232Z,73.66
2023-04-12T07:55:51.094Z,74.48
2023-04-12T07:57:52.576Z,73.41
2023-04-12T07:59:54.060Z,74.59
2023-04-12T08:01:55.656Z,75.58
2023-04-12T08:03:57.484Z,75.17
2023-04-12T08:05:59.771Z,76.21
2023-04-12T08:08:01.265Z,76.03
2023-04-12T08:10:02.775Z,76.88
2023-04-12T08:12:04.460Z,76.89
2023-04-12T08:14:06.022Z,76.22
2023-04-12T08:16:09.297Z,76.51
2023-04-12T08:18:11.304Z,77.06
2023-04-12T08:20:12.781Z,76.92
2023-04-12T08:22:14.501Z,76.88
2023-04-12T08:24:16.045Z,76.46
2023-04-12T08:26:17.511Z,77.05
2023-04-12T08:28:19.012Z,77.73
2023-04-12T08:30:26.466Z,76.78
2023-04-12T08:32:28.075Z,76.83
2023-04-12T08:34:29.555Z,78.53
2023-04-12T08:36:31.121Z,79.39
2023-04-12T08:40:43.107Z,79.22
2023-04-12T08:42:44.684Z,79.60
2023-04-12T08:44:46.270Z,81.89
2023-04-12T08:46:48.706Z,82.42
2023-04-12T08:48:54.870Z,80.28
2023-04-12T08:50:57.693Z,82.20
2023-04-12T08:52:59.788Z,82.67
2023-04-12T08:55:05.521Z,83.22
2023-04-12T08:57:09.032Z,83.91
2023-04-12T08:59:11.017Z,83.92
2023-04-12T09:01:14.248Z,84.31
2023-04-12T09:03:16.119Z,83.95
2023-04-12T09:05:17.900Z,85.18
2023-04-12T09:07:23.456Z,83.73
2023-04-12T09:09:47.368Z,83.31
2023-04-12T09:11:48.933Z,82.14
2023-04-12T09:13:50.890Z,82.65
2023-04-12T09:15:52.389Z,84.50
2023-04-12T09:18:06.130Z,85.05
2023-04-12T09:20:16.638Z,85.94
2023-04-12T09:22:18.320Z,85.15
2023-04-12T09:24:19.900Z,85.19
2023-04-12T09:26:31.625Z,83.36
2023-04-12T09:28:33.260Z,84.20
2023-04-12T09:30:42.837Z,85.72
2023-04-12T09:32:44.966Z,84.70
2023-04-12T09:34:57.995Z,85.15
2023-04-12T09:36:59.534Z,85.29
2023-04-12T09:39:05.280Z,85.53
2023-04-12T09:41:26.094Z,85.84
2023-04-12T09:43:38.537Z,86.16
2023-04-12T09:45:40.083Z,87.40
2023-04-12T09:47:41.801Z,88.05
2023-04-12T09:49:44.799Z,85.33
2023-04-12T09:51:52.547Z,85.19
2023-04-12T09:53:59.569Z,85.66
2023-04-12T09:56:05.714Z,84.38
2023-04-12T09:58:07.519Z,84.93
2023-04-12T10:00:17.372Z,85.26
2023-04-12T10:02:23.665Z,86.45
2023-04-12T10:04:26.342Z,86.98
2023-04-12T10:06:28.103Z,87.09
2023-04-12T10:08:30.860Z,87.32
2023-04-12T10:10:32.603Z,87.81
2023-04-12T10:12:37.106Z,88.71
2023-04-12T10:14:39.444Z,88.63
2023-04-12T10:16:42.697Z,88.14
2023-04-12T10:18:45.324Z,87.76
2023-04-12T10:20:47.706Z,86.81
2023-04-12T10:22:51.236Z,87.29
2023-04-12T10:24:52.943Z,87.65
2023-04-12T10:27:02.445Z,87.08
2023-04-12T10:29:24.395Z,86.02
2023-04-12T10:31:30.523Z,86.15
2023-04-12T10:33:32.147Z,86.25
2023-04-12T10:35:51.956Z,85.25
2023-04-12T10:38:03.549Z,84.91
2023-04-12T10:40:05.998Z,86.20
2023-04-12T10:42:27.866Z,86.74
2023-04-12T10:44:29.480Z,87.63
2023-04-12T10:46:40.461Z,87.85
2023-04-12T10:48:53.228Z,89.33
2023-04-12T10:51:29.688Z,88.83
2023-04-12T10:53:31.233Z,87.92
2023-04-12T10:55:33.411Z,89.24
2023-04-12T10:57:43.652Z,88.12
2023-04-12T10:59:56.735Z,89.29
2023-04-12T11:02:08.429Z,88.55
2023-04-12T11:04:17.232Z,89.34
2023-04-12T11:06:27.030Z,91.28
2023-04-12T11:08:30.677Z,90.64
2023-04-12T11:10:32.177Z,90.62
2023-04-12T11:12:34.246Z,91.37
2023-04-12T11:14:42.806Z,91.27
2023-04-12T11:17:06.508Z,91.12
2023-04-12T11:19:08.089Z,91.71
2023-04-12T11:21:10.441Z,91.57
2023-04-12T11:23:12.358Z,92.57
2023-04-12T11:25:20.839Z,92.71
2023-04-12T11:27:24.267Z,92.79
2023-04-12T11:29:26.465Z,92.72
2023-04-12T11:31:28.022Z,92.83
2023-04-12T11:33:37.003Z,93.75
2023-04-12T11:35:38.651Z,93.59
2023-04-12T11:37:40.326Z,93.60
2023-04-12T11:39:43.456Z,94.21
2023-04-12T11:41:46.405Z,94.43
2023-04-12T11:43:48.512Z,95.70
2023-04-12T11:45:56.328Z,96.40
2023-04-12T11:47:58.277Z,96.17
2023-04-12T11:49:59.978Z,96.80
2023-04-12T11:52:04.560Z,97.59
2023-04-12T11:54:06.024Z,97.76
2023-04-12T11:56:10.423Z,97.76
2023-04-12T11:58:11.929Z,97.70
2023-04-12T12:00:14.274Z,97.89
2023-04-12T12:02:23.760Z,98.56
2023-04-12T12:04:26.941Z,98.20
2023-04-12T12:06:29.562Z,98.57
2023-04-12T12:08:31.451Z,99.00
2023-04-12T12:10:46.343Z,99.02
2023-04-12T12:12:57.657Z,99.74
2023-04-12T12:15:00.415Z,100.00
2023-04-12T12:17:03.032Z,100.00
2023-04-12T12:19:05.164Z,100.00
2023-04-12T12:21:09.785Z,100.00
2023-04-12T12:23:11.347Z,100.00
2023-04-12T12:25:12.876Z,100.00
2023-04-12T12:27:18.783Z,100.00
2023-04-12T12:29:20.687Z,100.00
2023-04-12T12:31:27.844Z,100.00
2023-04-12T12:33:46.826Z,100.00
2023-04-12T12:36:01.517Z,100.00
2023-04-12T12:38:08.492Z,100.00
2023-04-12T12:40:15.407Z,100.00
2023-04-12T12:42:16.896Z,100.00
2023-04-12T12:44:18.355Z,100.00
2023-04-12T12:46:20.600Z,100.00
2023-04-12T12:48:22.195Z,100.00
2023-04-12T12:50:25.747Z,100.00
2023-04-12T12:52:27.364Z,100.00
2023-04-12T12:54:40.651Z,99.54
2023-04-12T12:56:43.224Z,98.67
2023-04-12T12:58:44.741Z,98.18
2023-04-12T13:00:46.288Z,96.88
2023-04-12T13:02:48.635Z,96.33
2023-04-12T13:04:50.317Z,95.54
2023-04-12T13:06:52.096Z,95.22
2023-04-12T13:08:55.065Z,94.26
2023-04-12T13:10:56.657Z,93.89
2023-04-12T13:12:58.740Z,93.86
2023-04-12T13:15:20.147Z,93.49
2023-04-12T13:17:23.770Z,93.64
2023-04-12T13:19:25.304Z,93.35
2023-04-12T13:21:27.200Z,93.53
2023-04-12T13:23:28.676Z,94.12
2023-04-12T13:25:30.169Z,94.96
2023-04-12T13:27:31.813Z,95.30
2023-04-12T13:29:33.522Z,95.52
2023-04-12T13:31:35.040Z,94.87
2023-04-12T13:33:36.596Z,95.88
2023-04-12T13:35:38.069Z,95.25
2023-04-12T13:37:39.954Z,95.32
2023-04-12T13:39:41.531Z,95.50
2023-04-12T13:41:43.127Z,95.44
2023-04-12T13:43:44.583Z,95.19
2023-04-12T13:45:46.148Z,95.68
2023-04-12T13:47:47.713Z,95.20
2023-04-12T13:49:49.479Z,93.59
2023-04-12T13:51:51.047Z,93.35
2023-04-12T13:53:52.835Z,92.30
2023-04-12T13:55:54.360Z,91.50
2023-04-12T13:57:55.849Z,90.43
2023-04-12T13:59:57.543Z,90.49
2023-04-12T14:02:00.638Z,90.82
2023-04-12T14:04:02.208Z,91.08
2023-04-12T14:06:03.748Z,91.18
2023-04-12T14:08:05.227Z,91.51
2023-04-12T14:10:07.437Z,91.59
2023-04-12T14:12:08.895Z,91.36
2023-04-12T14:14:10.915Z,90.30
2023-04-12T14:16:12.649Z,90.00
2023-04-12T14:18:14.205Z,89.75
2023-04-12T14:20:17.994Z,90.06
2023-04-12T14:22:20.754Z,89.92
2023-04-12T14:24:22.868Z,90.07
2023-04-12T14:26:24.335Z,89.41
2023-04-12T14:28:30.681Z,88.86
2023-04-12T14:30:32.406Z,87.66
2023-04-12T14:32:34.609Z,88.85
2023-04-12T14:34:38.003Z,89.26
2023-04-12T14:36:39.510Z,88.97
2023-04-12T14:38:42.042Z,89.34
2023-04-12T14:40:43.666Z,88.99
2023-04-12T14:42:45.345Z,88.87
2023-04-12T14:44:46.794Z,88.97
2023-04-12T14:46:48.287Z,89.37
2023-04-12T14:48:49.739Z,89.51
2023-04-12T14:50:51.278Z,89.82
2023-04-12T14:52:52.757Z,90.06
2023-04-12T14:54:54.353Z,90.19
2023-04-12T14:56:56.855Z,90.83
2023-04-12T14:58:58.479Z,91.03
2023-04-12T15:01:01.010Z,91.54
2023-04-12T15:03:03.052Z,91.70
2023-04-12T15:05:07.551Z,91.37
2023-04-12T15:07:09.091Z,88.29
2023-04-12T15:09:11.508Z,88.56
2023-04-12T15:11:13.047Z,89.51
2023-04-12T15:13:14.556Z,89.63
2023-04-12T15:15:16.463Z,90.09
2023-04-12T15:17:17.909Z,90.24
2023-04-12T15:19:22.825Z,89.85
2023-04-12T15:21:24.899Z,89.73
2023-04-12T15:23:26.659Z,90.30
2023-04-12T15:25:28.299Z,90.34
2023-04-12T15:27:31.200Z,90.40
2023-04-12T15:29:32.680Z,89.76
2023-04-12T15:31:34.195Z,90.19
2023-04-12T15:33:37.124Z,89.92
2023-04-12T15:35:38.829Z,90.36
2023-04-12T15:37:40.835Z,90.16
2023-04-12T15:39:42.492Z,89.92
2023-04-12T15:41:44.324Z,90.15
2023-04-12T15:43:49.284Z,90.34
2023-04-12T15:45:53.396Z,90.52
2023-04-12T15:47:55.341Z,91.35
2023-04-12T15:49:56.808Z,91.57
2023-04-12T15:51:58.317Z,91.43
2023-04-12T15:54:00.052Z,91.65
2023-04-12T15:56:04.488Z,91.21
2023-04-12T15:58:06.017Z,91.33
2023-04-12T16:00:12.662Z,91.72
2023-04-12T16:02:14.360Z,92.17
2023-04-12T16:04:18.979Z,92.08
2023-04-12T16:06:20.840Z,92.73
2023-04-12T16:08:22.923Z,93.51
2023-04-12T16:10:24.810Z,94.32
2023-04-12T16:12:26.686Z,94.39
2023-04-12T16:14:28.263Z,95.21
2023-04-12T16:16:30.227Z,94.95
2023-04-12T16:18:31.779Z,95.10
2023-04-12T16:20:33.249Z,94.72
2023-04-12T16:22:34.708Z,95.43
2023-04-12T16:24:37.402Z,94.01
2023-04-12T16:26:39.583Z,93.30
2023-04-12T16:28:43.861Z,92.79
2023-04-12T16:30:45.341Z,91.58
2023-04-12T16:32:47.823Z,91.58
2023-04-12T16:34:51.107Z,91.32
2023-04-12T16:36:52.947Z,89.81
2023-04-12T16:38:55.270Z,89.19
2023-04-12T16:40:56.917Z,89.87
2023-04-12T16:42:58.455Z,90.11
2023-04-12T16:44:59.886Z,89.96
2023-04-12T16:47:01.383Z,90.42
2023-04-12T16:49:04.722Z,90.29
2023-04-12T16:51:06.230Z,89.69
2023-04-12T16:53:08.531Z,90.07
2023-04-12T16:55:13.371Z,89.77
2023-04-12T16:57:15.531Z,89.26
2023-04-12T16:59:17.208Z,90.27
2023-04-12T17:01:19.241Z,90.24
2023-04-12T17:03:21.303Z,91.00
2023-04-12T17:05:23.209Z,91.01
2023-04-12T17:07:24.838Z,91.70
2023-04-12T17:09:26.531Z,91.87
2023-04-12T17:11:29.322Z,91.80
2023-04-12T17:13:31.148Z,92.43
2023-04-12T17:15:32.844Z,92.01
2023-04-12T17:17:34.316Z,92.15
2023-04-12T17:19:35.785Z,92.05
2023-04-12T17:21:41.418Z,92.17
2023-04-12T17:23:43.170Z,92.91
2023-04-12T17:25:45.182Z,93.51
2023-04-12T17:27:47.373Z,93.61
2023-04-12T17:29:50.226Z,90.34
2023-04-12T17:31:54.314Z,86.71
2023-04-12T17:33:56.929Z,86.26
2023-04-12T17:35:58.573Z,87.70
2023-04-12T17:38:00.064Z,88.51
2023-04-12T17:40:01.706Z,90.20
2023-04-12T17:42:03.424Z,91.71
2023-04-12T17:44:05.700Z,92.33
2023-04-12T17:46:07.400Z,93.15
2023-04-12T17:48:11.749Z,93.64
2023-04-12T17:50:14.721Z,94.33
2023-04-12T17:52:17.112Z,94.56
2023-04-12T17:54:18.775Z,95.47
2023-04-12T17:56:20.455Z,95.41
2023-04-12T17:58:21.954Z,95.61
2023-04-12T18:00:24.002Z,96.30
2023-04-12T18:02:26.066Z,96.37
2023-04-12T18:04:29.065Z,96.00
2023-04-12T18:06:31.758Z,96.87
2023-04-12T18:08:33.338Z,96.80
2023-04-12T18:10:35.218Z,97.15
2023-04-12T18:12:38.575Z,97.69
2023-04-12T18:14:42.761Z,97.30
2023-04-12T18:16:44.228Z,97.52
2023-04-12T18:18:45.936Z,97.35
2023-04-12T18:20:47.467Z,96.97
2023-04-12T18:22:48.970Z,97.00
2023-04-12T18:24:50.657Z,97.07
2023-04-12T18:26:52.121Z,96.05
2023-04-12T18:28:53.608Z,95.67
2023-04-12T18:30:57.123Z,94.99
2023-04-12T18:32:59.611Z,93.87
2023-04-12T18:35:02.571Z,94.18
2023-04-12T18:37:05.914Z,94.25
2023-04-12T18:39:08.015Z,93.24
2023-04-12T18:41:12.670Z,93.43
2023-04-12T18:43:14.126Z,93.24
2023-04-12T18:45:15.927Z,92.38
2023-04-12T18:47:17.676Z,91.42
2023-04-12T18:49:19.116Z,90.48
2023-04-12T18:51:22.843Z,90.23
2023-04-12T18:53:24.381Z,90.31
2023-04-12T18:55:25.991Z,91.21
2023-04-12T18:57:27.528Z,91.26
2023-04-12T18:59:30.032Z,91.92
2023-04-12T19:01:31.541Z,92.10
2023-04-12T19:03:33.746Z,92.62
2023-04-12T19:05:35.659Z,92.98
2023-04-12T19:07:37.711Z,92.59
2023-04-12T19:09:39.173Z,92.65
2023-04-12T19:11:40.708Z,92.14
2023-04-12T19:13:42.183Z,91.47
2023-04-12T19:15:43.781Z,91.38
2023-04-12T19:17:45.412Z,90.90
2023-04-12T19:19:47.000Z,90.17
2023-04-12T19:21:48.578Z,90.01
2023-04-12T19:23:50.030Z,89.93
2023-04-12T19:25:53.000Z,89.53
2023-04-12T19:27:54.510Z,89.52
2023-04-12T19:29:56.265Z,89.12
2023-04-12T19:31:58.169Z,89.12
2023-04-12T19:33:59.824Z,89.08
2023-04-12T19:36:01.611Z,88.75
2023-04-12T19:38:03.615Z,88.82
2023-04-12T19:40:06.296Z,89.27
2023-04-12T19:42:07.950Z,89.19
2023-04-12T19:44:09.445Z,88.12
2023-04-12T19:46:11.845Z,88.45
2023-04-12T19:48:13.452Z,88.33
2023-04-12T19:50:16.949Z,88.30
2023-04-12T19:52:21.251Z,88.74
2023-04-12T19:54:23.919Z,89.21
2023-04-12T19:56:25.572Z,88.77
2023-04-12T19:58:27.032Z,88.51
2023-04-12T20:00:30.187Z,88.07
2023-04-12T20:02:31.995Z,87.79
2023-04-12T20:04:33.696Z,87.59
2023-04-12T20:06:35.506Z,88.30
2023-04-12T20:08:37.891Z,88.26
2023-04-12T20:10:39.374Z,88.31
2023-04-12T20:12:41.356Z,88.61
2023-04-12T20:14:42.985Z,89.07
2023-04-12T20:16:45.528Z,88.54
2023-04-12T20:18:47.485Z,88.97
2023-04-12T20:20:49.709Z,87.97
2023-04-12T20:22:52.171Z,88.05
2023-04-12T20:24:54.110Z,87.80
2023-04-12T20:26:57.184Z,87.38
2023-04-12T20:29:00.283Z,87.14
2023-04-12T20:31:01.950Z,87.13
2023-04-12T20:33:04.287Z,87.17
2023-04-12T20:35:06.776Z,86.90
2023-04-12T20:37:08.271Z,86.76
2023-04-12T20:39:09.751Z,87.16
2023-04-12T20:41:11.226Z,86.51
2023-04-12T20:43:12.732Z,87.08
2023-04-12T20:45:16.841Z,86.81
2023-04-12T20:47:19.072Z,86.26
2023-04-12T20:49:20.599Z,86.91
2023-04-12T20:51:22.521Z,86.92
2023-04-12T20:53:24.358Z,86.19
2023-04-12T20:55:32.741Z,86.73
2023-04-12T20:57:34.649Z,86.89
2023-04-12T20:59:36.129Z,87.09
2023-04-12T21:01:37.746Z,85.93
2023-04-12T21:03:40.802Z,86.09
2023-04-12T21:05:42.340Z,86.48
2023-04-12T21:07:46.426Z,86.61
2023-04-12T21:09:48.313Z,85.91
2023-04-12T21:11:50.960Z,86.68
2023-04-12T21:13:52.564Z,86.43
2023-04-12T21:15:54.206Z,86.19
2023-04-12T21:17:55.897Z,85.54
2023-04-12T21:19:58.328Z,85.85
2023-04-12T21:21:59.844Z,88.05
2023-04-12T21:24:04.491Z,88.85
2023-04-12T21:26:06.799Z,87.84
2023-04-12T21:28:08.318Z,87.18
2023-04-12T21:30:13.739Z,87.44
2023-04-12T21:32:15.315Z,87.13
2023-04-12T21:34:18.197Z,86.68
2023-04-12T21:36:19.972Z,86.16
2023-04-12T21:38:24.659Z,85.78
2023-04-12T21:40:26.387Z,86.00
2023-04-12T21:42:29.617Z,85.48
2023-04-12T21:44:31.182Z,85.72
2023-04-12T21:46:32.721Z,85.78
2023-04-12T21:48:35.123Z,85.54
2023-04-12T21:50:38.026Z,85.34
2023-04-12T21:52:41.100Z,85.24
2023-04-12T21:54:42.592Z,86.04
2023-04-12T21:56:44.122Z,85.79
2023-04-12T21:58:45.612Z,85.31
2023-04-12T22:00:47.816Z,85.89
2023-04-12T22:02:49.424Z,86.02
2023-04-12T22:04:51.542Z,86.43
2023-04-12T22:06:53.049Z,86.16
2023-04-12T22:08:55.507Z,86.37
2023-04-12T22:10:57.027Z,86.48
2023-04-12T22:12:58.465Z,86.21
2023-04-12T22:14:59.916Z,86.27
2023-04-12T22:17:01.568Z,85.92
2023-04-12T22:19:03.123Z,86.60
2023-04-12T22:21:04.974Z,86.84
2023-04-12T22:23:06.453Z,87.19
2023-04-12T22:25:11.835Z,88.53
2023-04-12T22:27:14.798Z,88.73
2023-04-12T22:29:17.516Z,88.25
2023-04-12T22:31:22.300Z,88.16
2023-04-12T22:33:24.025Z,87.56
2023-04-12T22:35:25.672Z,86.85
2023-04-12T22:37:28.255Z,87.00
2023-04-12T22:39:31.702Z,86.65
2023-04-12T22:41:33.266Z,85.74
2023-04-12T22:43:42.668Z,86.02
2023-04-12T22:45:47.538Z,85.95
2023-04-12T22:47:48.994Z,86.07
2023-04-12T22:49:50.773Z,86.17
2023-04-12T22:51:52.848Z,86.21
2023-04-12T22:53:54.876Z,86.65
2023-04-12T22:55:57.274Z,86.38
2023-04-12T22:57:58.910Z,87.40
2023-04-12T23:00:00.640Z,88.79
2023-04-12T23:02:02.322Z,89.57
2023-04-12T23:04:03.952Z,91.08
2023-04-12T23:06:05.663Z,92.44
2023-04-12T23:08:07.232Z,93.47
2023-04-12T23:10:10.747Z,92.87
2023-04-12T23:12:12.589Z,93.17
2023-04-12T23:14:17.667Z,94.61
2023-04-12T23:16:19.396Z,95.66
2023-04-12T23:18:20.874Z,96.50
2023-04-12T23:20:22.973Z,97.18
2023-04-12T23:22:48.569Z,97.36
2023-04-12T23:24:56.275Z,97.92
2023-04-12T23:26:58.754Z,99.32
2023-04-12T23:29:03.518Z,99.22
2023-04-12T23:31:07.022Z,99.40
2023-04-12T23:33:09.401Z,99.80
2023-04-12T23:35:12.156Z,99.86
2023-04-12T23:37:15.063Z,99.78
2023-04-12T23:39:18.170Z,99.57
2023-04-12T23:41:19.693Z,100.00
2023-04-12T23:43:22.392Z,100.00
2023-04-12T23:45:24.209Z,100.00
2023-04-12T23:47:25.961Z,100.00
2023-04-12T23:49:27.903Z,100.00
2023-04-12T23:51:29.442Z,100.00
2023-04-12T23:53:31.488Z,100.00
2023-04-12T23:55:32.971Z,100.00
2023-04-12T23:57:34.669Z,100.00
2023-04-12T23:59:36.710Z,100.00
